Time;durP1;ratioP1;P1;durP2;ratioP2;P2;SDS_P1;SDS_P2;PMS_P1;PMS_P2;Temp;Humidity;BMP_temperature;BMP_pressure;BME280_temperature;BME280_humidity;BME280_pressure;Samples;Min_cycle;Max_cycle;Signal;HPM_P1;HPM_P2
2023/12/21 00:01:56;;;;;;;75.70;57.92;;;7.60;99.90;;;;;;5146522;28;20094;-78
2023/12/21 00:04:27;;;;;;;75.40;59.40;;;7.50;99.90;;;;;;5146144;28;20045;-80
2023/12/21 00:06:58;;;;;;;71.82;54.47;;;7.50;99.90;;;;;;5145588;28;20039;-82
2023/12/21 00:09:29;;;;;;;67.25;54.08;;;;;;;;;;5144298;28;20039;-79
2023/12/21 00:12:00;;;;;;;68.22;53.92;;;7.60;99.90;;;;;;5145423;28;20664;-75
2023/12/21 00:14:31;;;;;;;64.78;50.92;;;7.60;99.90;;;;;;5145385;28;20045;-81
2023/12/21 00:17:02;;;;;;;67.85;53.55;;;7.90;99.90;;;;;;5145750;28;20022;-75
2023/12/21 00:19:33;;;;;;;63.63;50.55;;;7.70;99.90;;;;;;5145716;28;20026;-84
2023/12/21 00:22:04;;;;;;;52.55;42.63;;;7.40;99.90;;;;;;5146120;28;20039;-83
2023/12/21 00:24:35;;;;;;;41.05;36.05;;;7.00;99.90;;;;;;5144981;28;20126;-79
2023/12/21 00:27:06;;;;;;;43.72;33.17;;;7.20;99.90;;;;;;5146143;28;20442;-74
2023/12/21 00:29:37;;;;;;;36.42;31.25;;;7.30;99.90;;;;;;5145986;28;20068;-77
2023/12/21 00:32:08;;;;;;;41.88;33.25;;;7.60;99.90;;;;;;5144777;28;20058;-77
2023/12/21 00:34:39;;;;;;;38.28;32.13;;;7.70;99.90;;;;;;5144646;28;20027;-76
2023/12/21 00:37:09;;;;;;;36.03;30.63;;;7.60;99.90;;;;;;5145768;28;20037;-79
2023/12/21 00:39:40;;;;;;;37.28;30.20;;;7.80;99.90;;;;;;5144297;28;20047;-82
2023/12/21 00:42:11;;;;;;;35.03;30.25;;;8.00;99.90;;;;;;5145668;28;20058;-81
2023/12/21 00:44:42;;;;;;;34.63;29.95;;;8.20;99.90;;;;;;5144459;28;20038;-79
2023/12/21 00:47:13;;;;;;;35.42;29.40;;;8.00;99.90;;;;;;5145446;28;20070;-75
2023/12/21 00:49:44;;;;;;;34.95;27.40;;;8.30;99.90;;;;;;5145003;28;20043;-80
2023/12/21 00:52:15;;;;;;;31.90;28.52;;;8.30;99.90;;;;;;5145462;28;20031;-75
2023/12/21 00:54:46;;;;;;;36.28;29.20;;;8.20;99.90;;;;;;5145423;28;20085;-75
2023/12/21 00:57:17;;;;;;;43.30;35.55;;;8.30;99.90;;;;;;5143679;28;20105;-84
2023/12/21 00:59:47;;;;;;;47.13;37.97;;;8.40;99.90;;;;;;5143504;28;20038;-81
2023/12/21 01:02:18;;;;;;;48.42;36.30;;;8.30;99.90;;;;;;5143170;28;20038;-75
2023/12/21 01:04:49;;;;;;;45.55;37.63;;;8.40;99.90;;;;;;5144539;28;20112;-77
2023/12/21 01:07:20;;;;;;;52.08;42.25;;;7.50;99.90;;;;;;5143268;28;20054;-82
2023/12/21 01:09:51;;;;;;;53.17;40.65;;;8.40;99.90;;;;;;5144351;28;20054;-80
2023/12/21 01:12:22;;;;;;;51.15;42.05;;;8.40;99.90;;;;;;5144406;28;20029;-76
2023/12/21 01:14:53;;;;;;;47.08;39.85;;;8.30;99.90;;;;;;5144960;28;20082;-83
2023/12/21 01:17:24;;;;;;;42.78;38.03;;;8.40;99.90;;;;;;5145272;28;20480;-82
2023/12/21 01:19:55;;;;;;;42.40;36.97;;;8.30;99.90;;;;;;5145272;28;20037;-82
2023/12/21 01:22:26;;;;;;;41.20;32.25;;;8.40;99.90;;;;;;5145086;28;20027;-82
2023/12/21 01:24:57;;;;;;;39.53;33.10;;;8.00;99.90;;;;;;5145376;28;20598;-84
2023/12/21 01:27:28;;;;;;;40.55;30.67;;;7.90;99.90;;;;;;5144357;28;20029;-84
2023/12/21 01:29:59;;;;;;;33.33;29.48;;;8.40;99.90;;;;;;5144524;28;20483;-82
2023/12/21 01:32:30;;;;;;;33.70;29.88;;;8.60;99.90;;;;;;5144985;28;20057;-78
2023/12/21 01:35:01;;;;;;;32.50;28.08;;;8.50;99.90;;;;;;5144921;28;20042;-79
2023/12/21 01:37:32;;;;;;;33.17;29.58;;;8.50;99.90;;;;;;5144910;28;20455;-80
2023/12/21 01:40:03;;;;;;;30.95;27.55;;;8.40;99.90;;;;;;5143129;28;20055;-80
2023/12/21 01:42:34;;;;;;;49.58;39.67;;;8.50;99.90;;;;;;5144179;28;20034;-76
2023/12/21 01:45:05;;;;;;;31.17;27.80;;;8.60;99.90;;;;;;5144443;28;20027;-83
2023/12/21 01:47:37;;;;;;;33.55;26.65;;;8.70;99.90;;;;;;5144278;28;20098;-78
2023/12/21 01:50:10;;;;;;;29.60;25.65;;;8.90;99.90;;;;;;5143174;28;20038;-84
2023/12/21 01:52:41;;;;;;;43.92;39.42;;;8.70;99.90;;;;;;5143218;28;20046;-79
2023/12/21 01:55:13;;;;;;;39.95;35.85;;;8.80;99.90;;;;;;5143404;28;20035;-76
2023/12/21 01:57:45;;;;;;;40.75;36.47;;;8.90;99.90;;;;;;5143523;28;20035;-80
2023/12/21 02:00:16;;;;;;;34.63;31.00;;;8.80;99.90;;;;;;5143366;28;20022;-74
2023/12/21 02:02:47;;;;;;;31.75;28.48;;;9.00;99.90;;;;;;5142294;28;20027;-82
2023/12/21 02:05:18;;;;;;;36.45;31.75;;;8.70;99.90;;;;;;5144308;28;20027;-85
2023/12/21 02:07:49;;;;;;;30.55;27.25;;;8.60;99.90;;;;;;5142740;28;20047;-78
2023/12/21 02:10:20;;;;;;;39.00;28.58;;;8.80;99.90;;;;;;5144647;28;20039;-82
2023/12/21 02:12:51;;;;;;;29.42;26.23;;;8.70;99.90;;;;;;5144493;28;20033;-83
2023/12/21 02:15:23;;;;;;;32.15;28.73;;;8.70;99.90;;;;;;5144352;28;20069;-76
2023/12/21 02:17:56;;;;;;;30.83;27.65;;;8.80;99.90;;;;;;5143198;28;20030;-79
2023/12/21 02:20:27;;;;;;;33.05;29.73;;;8.90;99.90;;;;;;5143952;28;20172;-84
2023/12/21 02:23:00;;;;;;;30.65;27.13;;;8.90;99.90;;;;;;5143487;28;20066;-76
2023/12/21 02:25:31;;;;;;;32.28;28.95;;;9.00;99.90;;;;;;5142667;28;20023;-75
2023/12/21 02:28:02;;;;;;;49.45;42.70;;;9.00;99.90;;;;;;5143390;28;20030;-76
2023/12/21 02:30:33;;;;;;;40.13;35.83;;;8.90;99.90;;;;;;5143371;28;20050;-83
2023/12/21 02:33:05;;;;;;;47.70;38.28;;;8.90;99.90;;;;;;5143468;28;20030;-81
2023/12/21 02:35:36;;;;;;;38.65;29.83;;;8.60;99.90;;;;;;5142872;28;20370;-81
2023/12/21 02:38:07;;;;;;;34.45;29.75;;;8.60;99.90;;;;;;5144722;28;20122;-82
2023/12/21 02:40:37;;;;;;;34.67;30.50;;;8.70;99.90;;;;;;5144122;28;20382;-82
2023/12/21 02:43:08;;;;;;;35.67;29.83;;;8.70;99.90;;;;;;5148239;28;20027;-80
2023/12/21 02:45:39;;;;;;;37.58;32.78;;;8.60;99.90;;;;;;5148210;28;20023;-78
2023/12/21 02:48:10;;;;;;;34.72;27.48;;;8.90;99.90;;;;;;5146975;28;20035;-77
2023/12/21 02:50:41;;;;;;;30.00;25.90;;;8.80;99.90;;;;;;5146712;28;20046;-82
2023/12/21 02:53:12;;;;;;;30.88;27.50;;;8.90;99.90;;;;;;5147614;28;20061;-76
2023/12/21 02:55:43;;;;;;;30.02;26.15;;;9.10;99.90;;;;;;5147831;28;20082;-75
2023/12/21 02:58:14;;;;;;;31.75;26.42;;;9.10;99.90;;;;;;5147843;28;20022;-85
2023/12/21 03:00:44;;;;;;;26.92;24.13;;;8.80;99.90;;;;;;5147814;28;20042;-81
2023/12/21 03:03:16;;;;;;;30.50;26.98;;;8.80;99.90;;;;;;5146493;28;20483;-83
2023/12/21 03:05:47;;;;;;;30.02;26.58;;;8.90;99.90;;;;;;5147770;28;20031;-78
2023/12/21 03:08:18;;;;;;;36.55;30.83;;;8.80;99.90;;;;;;5147648;28;20119;-76
2023/12/21 03:10:48;;;;;;;36.75;30.83;;;8.70;99.90;;;;;;5146421;28;20078;-82
2023/12/21 03:13:19;;;;;;;39.00;33.30;;;8.80;99.90;;;;;;5146993;28;20084;-78
2023/12/21 03:15:50;;;;;;;43.80;33.85;;;8.80;99.90;;;;;;5147335;28;20031;-80
2023/12/21 03:18:21;;;;;;;39.78;33.17;;;8.90;99.90;;;;;;5146653;28;20030;-79
2023/12/21 03:20:52;;;;;;;39.83;33.22;;;9.00;99.90;;;;;;5145206;28;20038;-82
2023/12/21 03:23:23;;;;;;;48.90;38.03;;;8.90;99.90;;;;;;5146482;28;20110;-79
2023/12/21 03:25:54;;;;;;;42.25;36.17;;;8.90;99.90;;;;;;5146329;28;20034;-83
2023/12/21 03:28:25;;;;;;;46.40;35.30;;;9.00;99.90;;;;;;5146503;28;20363;-79
2023/12/21 03:30:56;;;;;;;36.88;30.00;;;9.10;99.90;;;;;;5146490;28;20481;-84
2023/12/21 03:33:27;;;;;;;36.40;30.75;;;8.90;99.90;;;;;;5146348;28;20033;-83
2023/12/21 03:35:57;;;;;;;38.50;31.15;;;9.10;99.90;;;;;;5146270;28;20027;-77
2023/12/21 03:38:28;;;;;;;48.17;35.88;;;9.00;99.90;;;;;;5147155;28;20082;-79
2023/12/21 03:40:59;;;;;;;42.65;34.92;;;8.80;99.90;;;;;;5147581;28;20110;-79
2023/12/21 03:43:30;;;;;;;70.15;51.20;;;8.70;99.90;;;;;;5146022;28;20776;-76
2023/12/21 03:46:01;;;;;;;57.83;43.25;;;8.80;99.90;;;;;;5147462;28;20109;-83
2023/12/21 03:48:32;;;;;;;37.33;29.70;;;8.70;99.90;;;;;;5145982;28;20023;-83
2023/12/21 03:51:03;;;;;;;36.20;30.88;;;8.90;99.90;;;;;;5145819;28;20041;-83
2023/12/21 03:53:34;;;;;;;36.10;30.05;;;8.80;99.90;;;;;;5146136;28;20066;-84
2023/12/21 03:56:05;;;;;;;39.75;30.90;;;9.10;99.90;;;;;;5146674;28;20027;-78
2023/12/21 03:58:37;;;;;;;40.13;31.80;;;8.90;99.90;;;;;;5146808;28;20041;-75
2023/12/21 04:01:08;;;;;;;38.28;30.85;;;9.00;99.90;;;;;;5146714;28;20027;-84
2023/12/21 04:03:39;;;;;;;35.13;29.58;;;8.90;99.90;;;;;;5146856;28;20035;-79
2023/12/21 04:06:10;;;;;;;31.90;28.02;;;9.00;99.90;;;;;;5146775;28;20356;-82
2023/12/21 04:08:41;;;;;;;34.78;28.60;;;9.10;99.90;;;;;;5145883;28;20089;-78
2023/12/21 04:11:12;;;;;;;41.05;30.10;;;8.90;99.90;;;;;;5146507;28;20625;-79
2023/12/21 04:13:46;;;;;;;35.75;31.00;;;8.90;99.90;;;;;;5143980;28;20509;-82
2023/12/21 04:16:16;;;;;;;30.05;26.85;;;9.00;99.90;;;;;;5145252;28;20062;-75
2023/12/21 04:18:47;;;;;;;33.75;29.90;;;8.80;99.90;;;;;;5145395;28;20073;-83
2023/12/21 04:21:18;;;;;;;32.50;28.98;;;9.10;99.90;;;;;;5145233;28;20027;-80
2023/12/21 04:23:49;;;;;;;30.20;26.95;;;8.90;99.90;;;;;;5145312;28;20061;-75
2023/12/21 04:26:22;;;;;;;33.03;29.33;;;9.30;99.90;;;;;;5144174;28;20545;-75
2023/12/21 04:28:52;;;;;;;34.15;29.10;;;9.20;99.90;;;;;;5146005;28;20077;-76
2023/12/21 04:31:24;;;;;;;33.83;26.90;;;9.10;99.90;;;;;;5146233;28;20754;-77
2023/12/21 04:33:54;;;;;;;31.27;27.63;;;9.00;99.90;;;;;;5144671;28;20034;-78
2023/12/21 04:39:06;;;;;;;;;;;9.10;99.90;;;;;;5279368;23;20058;-75
2023/12/21 04:41:36;;;;;;;35.78;26.98;;;9.00;99.90;;;;;;5145808;28;19906;-83
2023/12/21 04:44:07;;;;;;;39.55;31.70;;;9.00;99.90;;;;;;5145926;28;20019;-86
2023/12/21 04:46:38;;;;;;;41.75;35.33;;;9.40;99.90;;;;;;5145951;28;20104;-85
2023/12/21 04:49:09;;;;;;;36.75;32.55;;;9.60;99.90;;;;;;5144477;28;20035;-79
2023/12/21 04:51:40;;;;;;;36.78;32.22;;;9.50;99.90;;;;;;5146186;28;20060;-77
2023/12/21 04:54:11;;;;;;;41.60;34.67;;;9.60;99.90;;;;;;5144656;28;20023;-76
2023/12/21 04:56:42;;;;;;;36.75;32.83;;;10.00;99.90;;;;;;5146014;28;20033;-84
2023/12/21 04:59:13;;;;;;;35.88;31.92;;;10.40;99.90;;;;;;5145490;28;20062;-75
2023/12/21 05:01:49;;;;;;;36.35;30.77;;;10.00;99.90;;;;;;5145387;28;20043;-81
2023/12/21 05:04:20;;;;;;;36.72;29.48;;;9.90;99.90;;;;;;5144685;28;20035;-75
2023/12/21 05:06:51;;;;;;;33.50;29.13;;;9.50;99.90;;;;;;5143143;28;20082;-77
2023/12/21 05:09:22;;;;;;;31.50;28.15;;;9.60;99.90;;;;;;5144547;28;20031;-83
2023/12/21 05:11:53;;;;;;;31.80;28.35;;;9.80;99.90;;;;;;5143133;28;20034;-80
2023/12/21 05:14:24;;;;;;;32.58;29.02;;;9.90;99.90;;;;;;5144119;28;20027;-81
2023/12/21 05:16:55;;;;;;;33.13;29.60;;;9.70;99.90;;;;;;5144502;28;20031;-77
2023/12/21 05:19:25;;;;;;;34.63;30.92;;;9.70;99.90;;;;;;5145326;28;20102;-84
2023/12/21 05:21:57;;;;;;;33.60;29.88;;;9.60;99.90;;;;;;5145611;28;20035;-83
2023/12/21 05:24:28;;;;;;;34.60;31.00;;;9.60;99.90;;;;;;5145534;28;20037;-83
2023/12/21 05:26:59;;;;;;;34.70;31.02;;;9.70;99.90;;;;;;5145255;28;20741;-84
2023/12/21 05:29:30;;;;;;;36.58;30.38;;;9.70;99.90;;;;;;5145099;28;20042;-79
2023/12/21 05:32:01;;;;;;;32.42;29.08;;;9.70;99.90;;;;;;5143682;28;20027;-81
2023/12/21 05:34:32;;;;;;;34.00;30.42;;;9.90;99.90;;;;;;5144850;28;20062;-84
2023/12/21 05:40:02;;;;;;;35.13;31.55;;;9.70;99.90;;;;;;5063044;29;20080;-85
2023/12/21 05:42:33;;;;;;;33.90;30.10;;;9.70;99.90;;;;;;5065436;29;20040;-85
2023/12/21 05:45:05;;;;;;;32.63;28.52;;;10.00;99.90;;;;;;5065688;29;20100;-83
2023/12/21 05:47:36;;;;;;;32.80;27.85;;;10.00;99.90;;;;;;5065311;29;20051;-82
2023/12/21 05:50:08;;;;;;;39.92;32.45;;;10.10;99.90;;;;;;5064207;29;20084;-84
2023/12/21 05:52:38;;;;;;;37.53;31.52;;;10.00;99.90;;;;;;5064849;29;20036;-81
2023/12/21 05:55:14;;;;;;;36.13;30.58;;;10.40;99.90;;;;;;5063621;29;20064;-80
2023/12/21 05:57:45;;;;;;;35.90;32.17;;;10.20;99.90;;;;;;5064737;29;20406;-75
2023/12/21 06:00:16;;;;;;;39.83;34.22;;;10.20;99.90;;;;;;5064000;29;20033;-83
2023/12/21 06:02:47;;;;;;;41.08;34.45;;;10.80;99.90;;;;;;5064359;29;20067;-80
2023/12/21 06:05:18;;;;;;;39.63;34.83;;;10.60;99.90;;;;;;5064041;29;20111;-78
2023/12/21 06:07:49;;;;;;;43.40;35.05;;;10.90;99.90;;;;;;5063843;29;20032;-83
2023/12/21 06:10:20;;;;;;;41.92;33.60;;;10.70;99.90;;;;;;5063775;29;21332;-81
2023/12/21 06:12:50;;;;;;;31.13;27.08;;;10.90;99.90;;;;;;5064202;29;20025;-75
2023/12/21 06:15:22;;;;;;;29.33;26.25;;;10.60;99.90;;;;;;5064150;29;20026;-84
2023/12/21 06:17:52;;;;;;;28.88;25.77;;;10.60;99.90;;;;;;5062249;29;20025;-83
2023/12/21 06:20:23;;;;;;;30.45;27.17;;;10.50;99.90;;;;;;5064110;29;20418;-83
2023/12/21 06:22:54;;;;;;;31.75;27.58;;;10.20;99.90;;;;;;5063234;29;20028;-81
2023/12/21 06:25:25;;;;;;;32.13;28.83;;;10.30;99.90;;;;;;5063845;29;20032;-83
2023/12/21 06:27:56;;;;;;;50.88;30.77;;;10.50;99.90;;;;;;5064021;29;20060;-83
2023/12/21 06:30:27;;;;;;;36.25;29.80;;;10.30;99.90;;;;;;5064004;29;20029;-75
2023/12/21 06:32:58;;;;;;;36.92;29.83;;;10.70;99.90;;;;;;5063835;29;20029;-80
2023/12/21 06:35:29;;;;;;;32.22;27.85;;;10.80;99.90;;;;;;5062648;29;20025;-77
2023/12/21 06:37:59;;;;;;;32.53;26.25;;;10.50;99.90;;;;;;5063020;29;20049;-79
2023/12/21 06:40:30;;;;;;;33.38;27.30;;;10.80;99.90;;;;;;5063839;29;20092;-79
2023/12/21 06:43:01;;;;;;;32.72;29.13;;;11.00;99.90;;;;;;5064000;29;20059;-82
2023/12/21 06:45:32;;;;;;;35.15;30.38;;;11.00;99.90;;;;;;5063506;29;20041;-77
2023/12/21 06:48:03;;;;;;;35.00;28.80;;;11.10;99.90;;;;;;5064344;29;20032;-81
2023/12/21 06:50:34;;;;;;;36.53;30.60;;;11.30;99.90;;;;;;5064407;29;20043;-78
2023/12/21 06:53:05;;;;;;;34.00;28.85;;;11.40;99.90;;;;;;5064452;29;20048;-83
2023/12/21 06:55:36;;;;;;;33.38;27.33;;;11.20;99.90;;;;;;5064267;29;20052;-83
2023/12/21 06:58:07;;;;;;;34.15;27.05;;;11.70;99.90;;;;;;5064384;29;20469;-83
2023/12/21 07:00:38;;;;;;;36.50;29.20;;;11.20;99.90;;;;;;5063582;29;20396;-81
2023/12/21 07:03:09;;;;;;;34.28;28.92;;;11.30;99.90;;;;;;5064593;29;20781;-83
2023/12/21 07:05:40;;;;;;;36.83;31.65;;;11.40;99.90;;;;;;5064920;29;20033;-77
2023/12/21 07:08:10;;;;;;;37.13;29.98;;;11.80;99.90;;;;;;5064608;29;20035;-78
2023/12/21 07:10:41;;;;;;;37.03;30.75;;;11.50;99.90;;;;;;5064916;29;20048;-76
2023/12/21 07:13:12;;;;;;;37.22;31.35;;;11.50;99.90;;;;;;5063464;29;20063;-80
2023/12/21 07:15:43;;;;;;;35.58;31.63;;;11.80;99.90;;;;;;5064907;29;20032;-76
2023/12/21 07:18:14;;;;;;;35.42;30.75;;;11.40;99.90;;;;;;5063987;29;20028;-79
2023/12/21 07:20:45;;;;;;;39.03;32.92;;;12.00;99.90;;;;;;5064445;29;20098;-77
2023/12/21 07:23:16;;;;;;;36.30;30.55;;;12.00;99.90;;;;;;5064456;29;20096;-76
2023/12/21 07:25:47;;;;;;;36.78;31.60;;;11.80;99.90;;;;;;5062662;29;20453;-81
2023/12/21 07:28:18;;;;;;;36.22;31.02;;;11.80;99.90;;;;;;5064913;29;20043;-77
2023/12/21 07:30:49;;;;;;;35.13;29.52;;;12.00;99.90;;;;;;5065600;29;20041;-81
2023/12/21 07:33:20;;;;;;;32.70;27.70;;;12.10;99.90;;;;;;5067025;29;20021;-81
2023/12/21 07:35:51;;;;;;;33.03;28.83;;;11.80;99.90;;;;;;5066937;29;20067;-75
2023/12/21 07:38:22;;;;;;;31.58;27.38;;;12.10;99.90;;;;;;5066193;29;20067;-78
2023/12/21 07:40:52;;;;;;;31.17;27.35;;;12.00;99.90;;;;;;5066622;29;20032;-79
2023/12/21 07:43:23;;;;;;;31.08;27.92;;;12.00;99.90;;;;;;5065764;29;20500;-82
2023/12/21 07:45:54;;;;;;;32.25;27.90;;;12.20;99.90;;;;;;5066061;29;20033;-81
2023/12/21 07:48:25;;;;;;;31.50;27.88;;;12.30;99.90;;;;;;5067544;29;20016;-83
2023/12/21 07:50:56;;;;;;;31.52;28.25;;;12.00;99.90;;;;;;5066866;29;20038;-83
2023/12/21 07:53:27;;;;;;;30.80;27.50;;;12.30;99.90;;;;;;5067070;29;20036;-77
2023/12/21 07:55:58;;;;;;;34.45;29.40;;;12.30;99.90;;;;;;5067242;29;20036;-76
2023/12/21 07:58:29;;;;;;;32.63;28.23;;;12.00;99.90;;;;;;5067605;29;20033;-81
2023/12/21 08:01:00;;;;;;;35.40;29.67;;;12.10;99.90;;;;;;5067744;29;20032;-80
2023/12/21 08:03:31;;;;;;;38.90;32.40;;;12.10;99.90;;;;;;5067637;29;20032;-76
2023/12/21 08:06:02;;;;;;;45.33;39.25;;;12.20;99.90;;;;;;5066248;29;20033;-83
2023/12/21 08:08:32;;;;;;;39.28;32.03;;;12.50;99.90;;;;;;5067839;29;20100;-86
2023/12/21 08:11:03;;;;;;;48.83;43.53;;;12.40;99.90;;;;;;5067936;29;20043;-82
2023/12/21 08:13:34;;;;;;;36.70;31.60;;;12.20;99.90;;;;;;5068259;29;20028;-82
2023/12/21 08:16:08;;;;;;;33.78;29.95;;;12.60;99.90;;;;;;5068274;29;20029;-82
2023/12/21 08:18:38;;;;;;;36.10;30.83;;;12.60;99.90;;;;;;5051406;29;20036;-83
2023/12/21 08:21:10;;;;;;;40.40;35.03;;;12.30;99.90;;;;;;5065782;29;20350;-79
2023/12/21 08:23:41;;;;;;;37.03;32.85;;;12.70;99.90;;;;;;5066457;29;20039;-84
2023/12/21 08:26:12;;;;;;;47.28;32.05;;;12.70;99.90;;;;;;5062936;29;20056;-79
2023/12/21 08:28:42;;;;;;;33.65;28.65;;;12.60;99.90;;;;;;5067193;29;20485;-83
2023/12/21 08:31:27;;;;;;;31.13;27.50;;;12.70;99.90;;;;;;5067420;29;20029;-79
2023/12/21 08:33:58;;;;;;;34.47;31.08;;;12.80;99.90;;;;;;5063834;29;20433;-80
2023/12/21 08:36:29;;;;;;;37.58;31.05;;;12.90;99.90;;;;;;5065678;29;20059;-78
2023/12/21 08:39:01;;;;;;;34.70;30.90;;;12.80;99.90;;;;;;5468535;23;20063;-80
2023/12/21 08:41:32;;;;;;;35.55;31.17;;;13.10;99.90;;;;;;5066607;29;20084;-79
2023/12/21 08:44:03;;;;;;;36.13;30.35;;;12.90;99.90;;;;;;5067700;29;20024;-79
2023/12/21 08:46:34;;;;;;;34.70;28.98;;;13.40;99.90;;;;;;5066161;29;20072;-78
2023/12/21 08:49:05;;;;;;;32.42;29.00;;;13.40;99.90;;;;;;5067648;29;20370;-80
2023/12/21 08:51:37;;;;;;;33.28;29.67;;;13.30;99.90;;;;;;5067476;29;20033;-77
2023/12/21 08:54:08;;;;;;;35.28;31.33;;;13.00;99.90;;;;;;5066316;29;20043;-79
2023/12/21 08:56:46;;;;;;;31.70;28.33;;;13.20;99.90;;;;;;5067167;29;20036;-78
2023/12/21 08:59:20;;;;;;;31.60;28.27;;;13.00;99.90;;;;;;5066284;29;20068;-78
2023/12/21 09:01:53;;;;;;;39.85;35.92;;;13.30;99.90;;;;;;5066919;29;20032;-77
2023/12/21 09:04:24;;;;;;;32.78;29.48;;;13.10;99.90;;;;;;5078351;29;20032;-82
2023/12/21 09:06:55;;;;;;;32.88;29.38;;;13.10;99.90;;;;;;5083252;29;20025;-81
2023/12/21 09:09:26;;;;;;;30.70;27.50;;;13.30;99.90;;;;;;5066192;29;20405;-79
2023/12/21 09:11:58;;;;;;;35.38;28.70;;;13.40;99.90;;;;;;5066706;29;20055;-82
2023/12/21 09:14:29;;;;;;;29.98;26.77;;;13.20;99.90;;;;;;5067797;29;20473;-83
2023/12/21 09:17:00;;;;;;;30.27;27.27;;;13.40;99.90;;;;;;5067314;29;20020;-83
2023/12/21 09:19:34;;;;;;;35.10;31.45;;;13.30;99.90;;;;;;5067683;29;20107;-83
2023/12/21 09:22:05;;;;;;;34.58;31.02;;;13.70;99.90;;;;;;5064839;29;20083;-83
2023/12/21 09:24:38;;;;;;;45.38;39.72;;;13.60;99.90;;;;;;5065433;29;20032;-80
2023/12/21 09:27:09;;;;;;;42.35;36.45;;;13.40;99.90;;;;;;5065560;29;20083;-75
2023/12/21 09:29:43;;;;;;;38.53;33.53;;;13.60;99.90;;;;;;5065360;29;20033;-81
2023/12/21 09:32:14;;;;;;;34.90;31.23;;;13.10;99.90;;;;;;5066200;29;20028;-77
2023/12/21 09:34:47;;;;;;;32.42;29.08;;;13.60;99.90;;;;;;5066426;29;20507;-75
2023/12/21 09:37:18;;;;;;;32.75;29.23;;;13.50;99.90;;;;;;5065377;29;20035;-75
2023/12/21 09:39:49;;;;;;;35.65;31.85;;;13.40;99.90;;;;;;5066311;29;20045;-74
2023/12/21 09:42:22;;;;;;;30.65;27.55;;;13.50;99.90;;;;;;5066740;29;20057;-76
2023/12/21 09:44:53;;;;;;;30.35;26.90;;;13.10;99.90;;;;;;5066745;29;20024;-74
2023/12/21 09:47:29;;;;;;;43.00;34.53;;;12.80;99.90;;;;;;5066876;29;20152;-80
2023/12/21 09:50:04;;;;;;;40.13;35.88;;;13.00;99.90;;;;;;5064801;29;20040;-75
2023/12/21 09:52:37;;;;;;;40.17;33.45;;;12.70;99.90;;;;;;5062051;29;20032;-76
2023/12/21 09:55:09;;;;;;;36.60;32.63;;;12.70;99.90;;;;;;5066137;29;20112;-76
2023/12/21 09:57:40;;;;;;;38.17;34.00;;;11.80;99.90;;;;;;5065103;29;20037;-81
2023/12/21 10:00:12;;;;;;;40.58;35.22;;;12.50;99.90;;;;;;5066306;29;20024;-81
2023/12/21 10:02:43;;;;;;;43.65;39.25;;;12.50;99.90;;;;;;5067830;29;20088;-80
2023/12/21 10:05:14;;;;;;;42.53;38.30;;;12.30;99.90;;;;;;5066325;29;20032;-79
2023/12/21 10:07:45;;;;;;;42.25;37.65;;;11.70;99.90;;;;;;5065560;29;20029;-79
2023/12/21 10:10:17;;;;;;;35.67;31.75;;;12.10;99.90;;;;;;5066364;29;20690;-78
2023/12/21 10:12:48;;;;;;;35.33;31.50;;;12.00;99.90;;;;;;5065071;29;20119;-80
2023/12/21 10:15:19;;;;;;;35.05;31.42;;;12.10;99.90;;;;;;5065949;29;20124;-79
2023/12/21 10:17:50;;;;;;;40.05;36.05;;;12.10;99.90;;;;;;5065975;29;20024;-81
2023/12/21 10:20:23;;;;;;;39.40;34.35;;;12.10;99.90;;;;;;5065730;29;20475;-79
2023/12/21 10:22:56;;;;;;;36.75;32.85;;;13.80;99.90;;;;;;5065530;29;20048;-78
2023/12/21 10:25:27;;;;;;;35.58;31.90;;;12.20;99.90;;;;;;5065319;29;20024;-78
2023/12/21 10:27:58;;;;;;;37.45;33.58;;;12.40;99.90;;;;;;5065378;29;20088;-78
2023/12/21 10:30:29;;;;;;;43.33;38.85;;;12.20;99.90;;;;;;5064325;29;20036;-75
2023/12/21 10:33:01;;;;;;;42.20;37.85;;;12.20;99.90;;;;;;5066074;29;20028;-74
2023/12/21 10:35:32;;;;;;;44.70;39.80;;;12.20;99.90;;;;;;5064714;29;20112;-75
2023/12/21 10:41:14;;;;;;;42.30;37.67;;;12.20;99.90;;;;;;4988539;29;19925;-79
2023/12/21 10:43:45;;;;;;;44.00;39.22;;;12.10;99.90;;;;;;4990034;29;20167;-81
2023/12/21 10:46:19;;;;;;;47.30;42.35;;;12.00;99.90;;;;;;4989722;29;20039;-81
2023/12/21 10:48:51;;;;;;;52.60;46.88;;;11.90;99.90;;;;;;4989261;29;20027;-81
2023/12/21 10:51:22;;;;;;;55.08;47.90;;;11.80;99.90;;;;;;4989430;29;20105;-80
2023/12/21 10:53:56;;;;;;;50.47;45.08;;;11.90;99.90;;;;;;4989524;29;20417;-80
2023/12/21 10:56:27;;;;;;;53.95;45.67;;;11.90;99.90;;;;;;4989500;29;20042;-80
2023/12/21 10:59:01;;;;;;;54.17;44.78;;;12.00;99.90;;;;;;4988389;29;20026;-80
2023/12/21 11:01:33;;;;;;;44.42;36.70;;;11.80;99.90;;;;;;4988654;29;20057;-80
2023/12/21 11:04:05;;;;;;;46.28;39.35;;;11.70;99.90;;;;;;4976654;29;20502;-81
2023/12/21 11:06:38;;;;;;;46.72;40.97;;;11.80;99.90;;;;;;4992296;29;20086;-80
2023/12/21 11:09:11;;;;;;;56.85;49.22;;;11.60;99.90;;;;;;4991689;29;20047;-80
2023/12/21 11:11:42;;;;;;;47.40;39.65;;;11.60;99.90;;;;;;4975567;29;20090;-76
2023/12/21 11:14:14;;;;;;;38.40;34.38;;;11.60;99.90;;;;;;4966330;29;20093;-78
2023/12/21 11:16:52;;;;;;;47.33;42.03;;;11.40;99.90;;;;;;4987100;29;20023;-77
2023/12/21 11:19:33;;;;;;;46.58;40.97;;;11.30;99.90;;;;;;4984527;29;20056;-80
2023/12/21 11:22:05;;;;;;;43.17;37.33;;;11.30;99.90;;;;;;4990219;29;20091;-81
2023/12/21 11:24:36;;;;;;;47.67;38.95;;;11.40;99.90;;;;;;4979380;29;20031;-81
2023/12/21 11:27:08;;;;;;;33.45;28.33;;;11.40;99.90;;;;;;4977100;29;20035;-77
2023/12/21 11:29:40;;;;;;;44.28;35.45;;;11.30;99.90;;;;;;4989486;29;20042;-80
2023/12/21 11:32:24;;;;;;;38.95;34.13;;;11.50;99.90;;;;;;4990009;29;20100;-77
2023/12/21 11:34:56;;;;;;;45.42;37.08;;;11.40;99.90;;;;;;4984495;29;20098;-81
2023/12/21 11:37:27;;;;;;;46.83;35.50;;;11.50;99.90;;;;;;4991454;29;20030;-80
2023/12/21 11:39:59;;;;;;;42.83;33.38;;;11.40;99.90;;;;;;4976463;29;20093;-79
2023/12/21 11:42:34;;;;;;;41.65;33.78;;;11.30;99.90;;;;;;4992646;29;20041;-78
2023/12/21 11:45:15;;;;;;;37.78;33.33;;;11.40;99.90;;;;;;4976923;29;20034;-77
2023/12/21 11:47:46;;;;;;;30.33;27.23;;;11.50;99.90;;;;;;4992918;29;20030;-83
2023/12/21 11:50:23;;;;;;;32.03;25.90;;;11.40;99.90;;;;;;4990806;29;20141;-83
2023/12/21 11:53:08;;;;;;;27.20;23.92;;;11.40;99.90;;;;;;4982693;29;20035;-79
2023/12/21 11:55:42;;;;;;;32.85;26.77;;;11.50;99.90;;;;;;4978546;29;20039;-79
2023/12/21 11:58:26;;;;;;;30.40;26.85;;;11.50;99.90;;;;;;4990455;29;20062;-79
2023/12/21 12:00:56;;;;;;;30.60;27.50;;;11.50;99.90;;;;;;4975678;29;20133;-79
2023/12/21 12:03:29;;;;;;;32.53;28.15;;;11.50;99.90;;;;;;4991595;29;20159;-79
2023/12/21 12:06:01;;;;;;;33.33;29.55;;;11.60;99.90;;;;;;4990561;29;20034;-79
2023/12/21 12:08:33;;;;;;;36.13;32.15;;;11.40;99.90;;;;;;4977138;29;20019;-80
2023/12/21 12:11:04;;;;;;;36.15;31.70;;;11.40;99.90;;;;;;4990842;29;20856;-80
2023/12/21 12:13:36;;;;;;;35.40;30.55;;;11.40;99.90;;;;;;4989243;29;20033;-81
2023/12/21 12:16:07;;;;;;;33.50;29.40;;;11.30;99.90;;;;;;4990764;29;20037;-77
2023/12/21 12:18:39;;;;;;;34.03;30.42;;;11.40;99.90;;;;;;4991945;29;20031;-81
2023/12/21 12:21:10;;;;;;;30.95;27.35;;;11.40;99.90;;;;;;4991554;29;20027;-77
2023/12/21 12:23:46;;;;;;;32.75;27.42;;;11.40;99.90;;;;;;4991480;29;20034;-76
2023/12/21 12:26:18;;;;;;;32.22;28.88;;;11.50;99.90;;;;;;4991437;29;20022;-80
2023/12/21 12:28:50;;;;;;;34.63;27.40;;;11.50;99.90;;;;;;4991096;29;20031;-82
2023/12/21 12:31:21;;;;;;;34.33;30.90;;;11.50;99.90;;;;;;4978655;29;20423;-82
2023/12/21 12:33:53;;;;;;;31.20;27.70;;;11.60;99.90;;;;;;4971877;29;20042;-76
2023/12/21 12:36:24;;;;;;;30.60;27.13;;;11.50;99.90;;;;;;4971152;29;20027;-83
2023/12/21 12:38:56;;;;;;;35.67;29.35;;;11.60;99.90;;;;;;4971810;29;20058;-77
2023/12/21 12:41:27;;;;;;;30.10;26.90;;;11.50;99.90;;;;;;4970890;29;20038;-78
2023/12/21 12:43:59;;;;;;;34.75;29.30;;;11.50;99.90;;;;;;4971391;29;20035;-80
2023/12/21 12:46:30;;;;;;;35.15;28.75;;;11.50;99.90;;;;;;4972299;29;20046;-79
2023/12/21 12:49:01;;;;;;;34.65;31.00;;;11.40;99.90;;;;;;4971986;29;20035;-77
2023/12/21 12:51:32;;;;;;;35.90;31.45;;;11.50;99.90;;;;;;4971900;29;20050;-82
2023/12/21 12:54:06;;;;;;;33.05;29.70;;;11.40;99.90;;;;;;4971920;29;20082;-76
2023/12/21 12:56:51;;;;;;;33.25;29.48;;;11.50;99.90;;;;;;4970686;29;20556;-82
2023/12/21 12:59:22;;;;;;;38.72;31.92;;;11.50;99.90;;;;;;4971770;29;20027;-75
2023/12/21 13:01:52;;;;;;;34.70;29.45;;;11.30;99.90;;;;;;4971655;29;20034;-82